sensor_id;sensor_type;location;lat;lon;timestamp;P1;durP1;ratioP1;P2;durP2;ratioP2
10963;SDS011;5534;48.784;9.190;2023-02-15T00:01:29;21.90;;;13.60;;
10963;SDS011;5534;48.784;9.190;2023-02-15T00:03:55;23.07;;;12.83;;
10963;SDS011;5534;48.784;9.190;2023-02-15T00:06:24;20.37;;;12.70;;
10963;SDS011;5534;48.784;9.190;2023-02-15T00:08:50;21.00;;;12.20;;
10963;SDS011;5534;48.784;9.190;2023-02-15T00:11:16;20.20;;;12.53;;
10963;SDS011;5534;48.784;9.190;2023-02-15T00:14:07;19.23;;;12.40;;
10963;SDS011;5534;48.784;9.190;2023-02-15T00:16:37;22.13;;;12.43;;
10963;SDS011;5534;48.784;9.190;2023-02-15T00:19:04;22.83;;;14.23;;
10963;SDS011;5534;48.784;9.190;2023-02-15T00:21:31;20.90;;;12.87;;
10963;SDS011;5534;48.784;9.190;2023-02-15T00:23:59;22.30;;;12.73;;
10963;SDS011;5534;48.784;9.190;2023-02-15T00:26:26;19.93;;;12.63;;
10963;SDS011;5534;48.784;9.190;2023-02-15T00:28:52;22.70;;;13.30;;
10963;SDS011;5534;48.784;9.190;2023-02-15T00:31:18;23.27;;;12.87;;
10963;SDS011;5534;48.784;9.190;2023-02-15T00:33:45;17.53;;;12.47;;
10963;SDS011;5534;48.784;9.190;2023-02-15T00:36:11;18.57;;;12.20;;
10963;SDS011;5534;48.784;9.190;2023-02-15T00:38:37;23.73;;;12.30;;
10963;SDS011;5534;48.784;9.190;2023-02-15T00:41:04;23.90;;;13.73;;
10963;SDS011;5534;48.784;9.190;2023-02-15T00:43:31;23.23;;;12.33;;
10963;SDS011;5534;48.784;9.190;2023-02-15T00:45:59;21.80;;;12.60;;
10963;SDS011;5534;48.784;9.190;2023-02-15T00:48:25;20.40;;;12.43;;
10963;SDS011;5534;48.784;9.190;2023-02-15T00:50:55;18.17;;;12.00;;
10963;SDS011;5534;48.784;9.190;2023-02-15T00:53:23;20.63;;;13.27;;
10963;SDS011;5534;48.784;9.190;2023-02-15T00:55:50;21.77;;;12.53;;
10963;SDS011;5534;48.784;9.190;2023-02-15T00:58:16;20.07;;;12.00;;
10963;SDS011;5534;48.784;9.190;2023-02-15T01:00:43;19.47;;;12.73;;
10963;SDS011;5534;48.784;9.190;2023-02-15T01:03:11;21.00;;;12.20;;
10963;SDS011;5534;48.784;9.190;2023-02-15T01:05:37;20.87;;;12.87;;
10963;SDS011;5534;48.784;9.190;2023-02-15T01:08:03;23.47;;;14.50;;
10963;SDS011;5534;48.784;9.190;2023-02-15T01:10:29;21.37;;;12.83;;
10963;SDS011;5534;48.784;9.190;2023-02-15T01:12:55;21.20;;;12.87;;
10963;SDS011;5534;48.784;9.190;2023-02-15T01:15:22;23.70;;;13.97;;
10963;SDS011;5534;48.784;9.190;2023-02-15T01:17:48;22.10;;;13.83;;
10963;SDS011;5534;48.784;9.190;2023-02-15T01:20:18;23.53;;;13.33;;
10963;SDS011;5534;48.784;9.190;2023-02-15T01:22:45;22.50;;;12.53;;
10963;SDS011;5534;48.784;9.190;2023-02-15T01:25:11;22.70;;;13.23;;
10963;SDS011;5534;48.784;9.190;2023-02-15T01:27:37;20.50;;;12.70;;
10963;SDS011;5534;48.784;9.190;2023-02-15T01:30:03;21.53;;;13.37;;
10963;SDS011;5534;48.784;9.190;2023-02-15T01:32:29;25.90;;;12.73;;
10963;SDS011;5534;48.784;9.190;2023-02-15T01:34:56;19.93;;;11.97;;
10963;SDS011;5534;48.784;9.190;2023-02-15T01:37:22;20.97;;;13.13;;
10963;SDS011;5534;48.784;9.190;2023-02-15T01:39:47;18.17;;;10.63;;
10963;SDS011;5534;48.784;9.190;2023-02-15T01:42:13;22.13;;;12.50;;
10963;SDS011;5534;48.784;9.190;2023-02-15T01:44:46;19.67;;;11.97;;
10963;SDS011;5534;48.784;9.190;2023-02-15T01:50:14;19.43;;;11.20;;
10963;SDS011;5534;48.784;9.190;2023-02-15T01:53:01;18.67;;;11.37;;
10963;SDS011;5534;48.784;9.190;2023-02-15T01:55:34;16.80;;;10.70;;
10963;SDS011;5534;48.784;9.190;2023-02-15T01:58:08;21.87;;;11.97;;
10963;SDS011;5534;48.784;9.190;2023-02-15T02:00:34;18.77;;;11.37;;
10963;SDS011;5534;48.784;9.190;2023-02-15T02:03:00;20.17;;;12.60;;
10963;SDS011;5534;48.784;9.190;2023-02-15T02:05:28;21.43;;;12.57;;
10963;SDS011;5534;48.784;9.190;2023-02-15T02:07:56;23.87;;;12.63;;
10963;SDS011;5534;48.784;9.190;2023-02-15T02:10:24;20.70;;;12.17;;
10963;SDS011;5534;48.784;9.190;2023-02-15T02:12:52;22.40;;;11.90;;
10963;SDS011;5534;48.784;9.190;2023-02-15T02:15:46;20.50;;;11.93;;
10963;SDS011;5534;48.784;9.190;2023-02-15T02:21:08;19.23;;;11.40;;
10963;SDS011;5534;48.784;9.190;2023-02-15T02:24:08;17.93;;;9.93;;
10963;SDS011;5534;48.784;9.190;2023-02-15T02:35:40;19.57;;;11.73;;
10963;SDS011;5534;48.784;9.190;2023-02-15T02:41:24;19.90;;;11.83;;
10963;SDS011;5534;48.784;9.190;2023-02-15T02:44:18;18.83;;;10.60;;
10963;SDS011;5534;48.784;9.190;2023-02-15T02:47:06;18.03;;;11.60;;
10963;SDS011;5534;48.784;9.190;2023-02-15T02:49:43;20.90;;;12.43;;
10963;SDS011;5534;48.784;9.190;2023-02-15T02:54:57;19.37;;;11.50;;
10963;SDS011;5534;48.784;9.190;2023-02-15T02:57:24;18.17;;;11.33;;
10963;SDS011;5534;48.784;9.190;2023-02-15T02:59:52;17.67;;;10.93;;
10963;SDS011;5534;48.784;9.190;2023-02-15T03:02:22;17.37;;;11.10;;
10963;SDS011;5534;48.784;9.190;2023-02-15T03:04:55;19.17;;;11.30;;
10963;SDS011;5534;48.784;9.190;2023-02-15T03:07:29;18.60;;;11.43;;
10963;SDS011;5534;48.784;9.190;2023-02-15T03:09:57;18.90;;;11.77;;
10963;SDS011;5534;48.784;9.190;2023-02-15T03:12:29;16.63;;;10.87;;
10963;SDS011;5534;48.784;9.190;2023-02-15T03:15:03;21.23;;;12.00;;
10963;SDS011;5534;48.784;9.190;2023-02-15T03:17:40;17.00;;;10.93;;
10963;SDS011;5534;48.784;9.190;2023-02-15T03:20:11;18.40;;;11.47;;
10963;SDS011;5534;48.784;9.190;2023-02-15T03:22:39;19.00;;;11.67;;
10963;SDS011;5534;48.784;9.190;2023-02-15T03:25:14;22.00;;;11.57;;
10963;SDS011;5534;48.784;9.190;2023-02-15T03:27:47;17.23;;;11.10;;
10963;SDS011;5534;48.784;9.190;2023-02-15T03:30:19;20.90;;;11.30;;
10963;SDS011;5534;48.784;9.190;2023-02-15T03:32:47;20.77;;;11.27;;
10963;SDS011;5534;48.784;9.190;2023-02-15T03:35:15;18.53;;;11.17;;
10963;SDS011;5534;48.784;9.190;2023-02-15T03:40:19;19.20;;;11.07;;
10963;SDS011;5534;48.784;9.190;2023-02-15T03:43:17;19.73;;;10.90;;
10963;SDS011;5534;48.784;9.190;2023-02-15T03:45:45;16.50;;;10.80;;
10963;SDS011;5534;48.784;9.190;2023-02-15T03:48:21;18.47;;;10.67;;
10963;SDS011;5534;48.784;9.190;2023-02-15T03:50:54;17.90;;;10.57;;
10963;SDS011;5534;48.784;9.190;2023-02-15T03:53:44;16.83;;;10.23;;
10963;SDS011;5534;48.784;9.190;2023-02-15T03:56:15;16.47;;;10.53;;
10963;SDS011;5534;48.784;9.190;2023-02-15T03:58:40;17.23;;;10.77;;
10963;SDS011;5534;48.784;9.190;2023-02-15T04:01:36;18.63;;;10.23;;
10963;SDS011;5534;48.784;9.190;2023-02-15T04:07:02;18.30;;;10.53;;
10963;SDS011;5534;48.784;9.190;2023-02-15T04:09:30;14.77;;;9.63;;
10963;SDS011;5534;48.784;9.190;2023-02-15T04:12:14;15.60;;;10.37;;
10963;SDS011;5534;48.784;9.190;2023-02-15T04:14:40;18.23;;;10.20;;
10963;SDS011;5534;48.784;9.190;2023-02-15T04:17:24;16.97;;;10.40;;
10963;SDS011;5534;48.784;9.190;2023-02-15T04:19:50;19.63;;;10.40;;
10963;SDS011;5534;48.784;9.190;2023-02-15T04:22:34;17.97;;;10.70;;
10963;SDS011;5534;48.784;9.190;2023-02-15T04:25:22;16.70;;;9.37;;
10963;SDS011;5534;48.784;9.190;2023-02-15T04:27:49;14.37;;;9.20;;
10963;SDS011;5534;48.784;9.190;2023-02-15T04:30:19;18.53;;;11.00;;
10963;SDS011;5534;48.784;9.190;2023-02-15T04:32:50;16.00;;;10.10;;
10963;SDS011;5534;48.784;9.190;2023-02-15T04:35:16;16.77;;;9.77;;
10963;SDS011;5534;48.784;9.190;2023-02-15T04:37:45;15.80;;;9.87;;
10963;SDS011;5534;48.784;9.190;2023-02-15T04:40:12;17.50;;;10.43;;
10963;SDS011;5534;48.784;9.190;2023-02-15T04:42:41;17.87;;;11.00;;
10963;SDS011;5534;48.784;9.190;2023-02-15T04:45:07;16.33;;;10.30;;
10963;SDS011;5534;48.784;9.190;2023-02-15T04:47:35;16.10;;;9.83;;
10963;SDS011;5534;48.784;9.190;2023-02-15T04:50:03;18.27;;;11.10;;
10963;SDS011;5534;48.784;9.190;2023-02-15T04:52:30;15.10;;;10.07;;
10963;SDS011;5534;48.784;9.190;2023-02-15T04:54:56;16.07;;;10.63;;
10963;SDS011;5534;48.784;9.190;2023-02-15T04:57:22;18.20;;;10.50;;
10963;SDS011;5534;48.784;9.190;2023-02-15T04:59:48;17.87;;;9.97;;
10963;SDS011;5534;48.784;9.190;2023-02-15T05:02:13;19.27;;;10.87;;
10963;SDS011;5534;48.784;9.190;2023-02-15T05:04:39;15.27;;;9.50;;
10963;SDS011;5534;48.784;9.190;2023-02-15T05:07:05;14.50;;;9.70;;
10963;SDS011;5534;48.784;9.190;2023-02-15T05:09:32;19.97;;;10.30;;
10963;SDS011;5534;48.784;9.190;2023-02-15T05:11:58;14.63;;;9.60;;
10963;SDS011;5534;48.784;9.190;2023-02-15T05:14:23;16.63;;;10.60;;
10963;SDS011;5534;48.784;9.190;2023-02-15T05:16:51;15.17;;;9.83;;
10963;SDS011;5534;48.784;9.190;2023-02-15T05:19:19;17.67;;;10.80;;
10963;SDS011;5534;48.784;9.190;2023-02-15T05:21:48;16.53;;;10.30;;
10963;SDS011;5534;48.784;9.190;2023-02-15T05:24:14;16.53;;;10.20;;
10963;SDS011;5534;48.784;9.190;2023-02-15T05:27:00;16.23;;;9.83;;
10963;SDS011;5534;48.784;9.190;2023-02-15T05:29:44;19.47;;;10.77;;
10963;SDS011;5534;48.784;9.190;2023-02-15T05:32:12;17.17;;;10.17;;
10963;SDS011;5534;48.784;9.190;2023-02-15T05:34:39;16.60;;;9.73;;
10963;SDS011;5534;48.784;9.190;2023-02-15T05:37:06;18.37;;;9.83;;
10963;SDS011;5534;48.784;9.190;2023-02-15T05:39:33;16.33;;;10.00;;
10963;SDS011;5534;48.784;9.190;2023-02-15T05:41:59;16.87;;;9.97;;
10963;SDS011;5534;48.784;9.190;2023-02-15T05:44:25;16.07;;;9.87;;
10963;SDS011;5534;48.784;9.190;2023-02-15T05:46:51;14.77;;;10.07;;
10963;SDS011;5534;48.784;9.190;2023-02-15T05:49:16;14.93;;;9.53;;
10963;SDS011;5534;48.784;9.190;2023-02-15T05:51:42;15.27;;;10.47;;
10963;SDS011;5534;48.784;9.190;2023-02-15T05:54:08;16.73;;;9.40;;
10963;SDS011;5534;48.784;9.190;2023-02-15T05:56:34;14.97;;;9.50;;
10963;SDS011;5534;48.784;9.190;2023-02-15T05:59:01;15.10;;;9.10;;
10963;SDS011;5534;48.784;9.190;2023-02-15T06:01:27;17.53;;;9.57;;
10963;SDS011;5534;48.784;9.190;2023-02-15T06:03:53;17.57;;;10.80;;
10963;SDS011;5534;48.784;9.190;2023-02-15T06:06:21;17.77;;;10.27;;
10963;SDS011;5534;48.784;9.190;2023-02-15T06:08:46;19.97;;;11.30;;
10963;SDS011;5534;48.784;9.190;2023-02-15T06:11:12;16.17;;;10.53;;
10963;SDS011;5534;48.784;9.190;2023-02-15T06:13:38;16.70;;;9.43;;
10963;SDS011;5534;48.784;9.190;2023-02-15T06:16:04;18.33;;;10.87;;
10963;SDS011;5534;48.784;9.190;2023-02-15T06:18:33;15.87;;;8.90;;
10963;SDS011;5534;48.784;9.190;2023-02-15T06:21:00;20.83;;;10.97;;
10963;SDS011;5534;48.784;9.190;2023-02-15T06:23:29;16.33;;;10.17;;
10963;SDS011;5534;48.784;9.190;2023-02-15T06:25:54;15.23;;;10.13;;
10963;SDS011;5534;48.784;9.190;2023-02-15T06:28:20;18.80;;;10.13;;
10963;SDS011;5534;48.784;9.190;2023-02-15T06:30:46;15.70;;;10.03;;
10963;SDS011;5534;48.784;9.190;2023-02-15T06:33:12;17.20;;;10.20;;
10963;SDS011;5534;48.784;9.190;2023-02-15T06:35:37;17.67;;;10.57;;
10963;SDS011;5534;48.784;9.190;2023-02-15T06:38:03;16.93;;;10.27;;
10963;SDS011;5534;48.784;9.190;2023-02-15T06:40:29;18.43;;;10.97;;
10963;SDS011;5534;48.784;9.190;2023-02-15T06:42:55;17.77;;;10.67;;
10963;SDS011;5534;48.784;9.190;2023-02-15T06:45:21;19.73;;;10.80;;
10963;SDS011;5534;48.784;9.190;2023-02-15T06:47:47;23.37;;;11.07;;
10963;SDS011;5534;48.784;9.190;2023-02-15T06:50:13;20.80;;;11.33;;
10963;SDS011;5534;48.784;9.190;2023-02-15T06:52:38;19.87;;;11.07;;
10963;SDS011;5534;48.784;9.190;2023-02-15T06:55:04;20.13;;;10.80;;
10963;SDS011;5534;48.784;9.190;2023-02-15T06:57:31;20.03;;;10.87;;
10963;SDS011;5534;48.784;9.190;2023-02-15T06:59:58;17.73;;;10.17;;
10963;SDS011;5534;48.784;9.190;2023-02-15T07:02:24;18.97;;;10.77;;
10963;SDS011;5534;48.784;9.190;2023-02-15T07:04:51;17.77;;;10.50;;
10963;SDS011;5534;48.784;9.190;2023-02-15T07:07:17;18.20;;;10.50;;
10963;SDS011;5534;48.784;9.190;2023-02-15T07:09:43;21.53;;;11.47;;
10963;SDS011;5534;48.784;9.190;2023-02-15T07:12:14;19.07;;;10.97;;
10963;SDS011;5534;48.784;9.190;2023-02-15T07:14:58;18.10;;;11.20;;
10963;SDS011;5534;48.784;9.190;2023-02-15T07:17:24;20.83;;;11.27;;
10963;SDS011;5534;48.784;9.190;2023-02-15T07:19:53;23.90;;;12.50;;
10963;SDS011;5534;48.784;9.190;2023-02-15T07:22:19;19.87;;;10.87;;
10963;SDS011;5534;48.784;9.190;2023-02-15T07:24:45;20.60;;;11.03;;
10963;SDS011;5534;48.784;9.190;2023-02-15T07:27:12;20.37;;;11.90;;
10963;SDS011;5534;48.784;9.190;2023-02-15T07:29:38;20.30;;;10.47;;
10963;SDS011;5534;48.784;9.190;2023-02-15T07:32:05;18.23;;;11.30;;
10963;SDS011;5534;48.784;9.190;2023-02-15T07:34:33;22.10;;;12.83;;
10963;SDS011;5534;48.784;9.190;2023-02-15T07:36:59;20.40;;;11.97;;
10963;SDS011;5534;48.784;9.190;2023-02-15T07:39:25;19.50;;;11.13;;
10963;SDS011;5534;48.784;9.190;2023-02-15T07:41:50;21.87;;;11.03;;
10963;SDS011;5534;48.784;9.190;2023-02-15T07:44:16;18.97;;;11.00;;
10963;SDS011;5534;48.784;9.190;2023-02-15T07:46:42;17.93;;;9.97;;
10963;SDS011;5534;48.784;9.190;2023-02-15T07:49:07;19.27;;;10.87;;
10963;SDS011;5534;48.784;9.190;2023-02-15T07:51:33;18.53;;;11.00;;
10963;SDS011;5534;48.784;9.190;2023-02-15T07:53:59;16.93;;;10.17;;
10963;SDS011;5534;48.784;9.190;2023-02-15T07:56:25;19.30;;;11.20;;
10963;SDS011;5534;48.784;9.190;2023-02-15T07:58:52;19.33;;;10.40;;
10963;SDS011;5534;48.784;9.190;2023-02-15T08:01:18;16.20;;;10.43;;
10963;SDS011;5534;48.784;9.190;2023-02-15T08:03:49;16.03;;;10.20;;
10963;SDS011;5534;48.784;9.190;2023-02-15T08:06:15;19.20;;;11.20;;
10963;SDS011;5534;48.784;9.190;2023-02-15T08:08:41;17.50;;;10.70;;
10963;SDS011;5534;48.784;9.190;2023-02-15T08:19:19;19.03;;;11.63;;
10963;SDS011;5534;48.784;9.190;2023-02-15T08:21:56;21.03;;;11.50;;
10963;SDS011;5534;48.784;9.190;2023-02-15T08:24:25;17.90;;;10.63;;
10963;SDS011;5534;48.784;9.190;2023-02-15T08:26:52;21.83;;;11.53;;
10963;SDS011;5534;48.784;9.190;2023-02-15T08:29:19;19.30;;;10.83;;
10963;SDS011;5534;48.784;9.190;2023-02-15T08:31:50;19.13;;;10.97;;
10963;SDS011;5534;48.784;9.190;2023-02-15T08:34:19;19.07;;;11.13;;
10963;SDS011;5534;48.784;9.190;2023-02-15T08:36:46;19.70;;;11.10;;
10963;SDS011;5534;48.784;9.190;2023-02-15T08:39:12;20.37;;;11.87;;
10963;SDS011;5534;48.784;9.190;2023-02-15T08:41:39;23.63;;;11.87;;
10963;SDS011;5534;48.784;9.190;2023-02-15T08:44:07;19.00;;;10.83;;
10963;SDS011;5534;48.784;9.190;2023-02-15T08:46:35;20.93;;;11.83;;
10963;SDS011;5534;48.784;9.190;2023-02-15T08:49:08;19.60;;;11.27;;
10963;SDS011;5534;48.784;9.190;2023-02-15T08:51:37;19.83;;;11.00;;
10963;SDS011;5534;48.784;9.190;2023-02-15T08:54:06;19.13;;;11.40;;
10963;SDS011;5534;48.784;9.190;2023-02-15T08:56:38;20.53;;;12.00;;
10963;SDS011;5534;48.784;9.190;2023-02-15T08:59:06;18.77;;;11.50;;
10963;SDS011;5534;48.784;9.190;2023-02-15T09:01:33;24.40;;;11.37;;
10963;SDS011;5534;48.784;9.190;2023-02-15T09:04:07;24.40;;;11.90;;
10963;SDS011;5534;48.784;9.190;2023-02-15T09:06:38;22.63;;;13.17;;
10963;SDS011;5534;48.784;9.190;2023-02-15T09:09:05;17.73;;;11.47;;
10963;SDS011;5534;48.784;9.190;2023-02-15T09:11:35;25.43;;;14.40;;
10963;SDS011;5534;48.784;9.190;2023-02-15T09:14:04;19.97;;;12.30;;
10963;SDS011;5534;48.784;9.190;2023-02-15T09:16:34;21.53;;;11.57;;
10963;SDS011;5534;48.784;9.190;2023-02-15T09:19:01;20.97;;;12.00;;
10963;SDS011;5534;48.784;9.190;2023-02-15T09:21:30;20.77;;;11.87;;
10963;SDS011;5534;48.784;9.190;2023-02-15T09:23:58;21.23;;;12.13;;
10963;SDS011;5534;48.784;9.190;2023-02-15T09:26:26;20.50;;;12.53;;
10963;SDS011;5534;48.784;9.190;2023-02-15T09:28:55;20.73;;;11.30;;
10963;SDS011;5534;48.784;9.190;2023-02-15T09:31:26;23.23;;;13.10;;
10963;SDS011;5534;48.784;9.190;2023-02-15T09:33:54;22.90;;;13.47;;
10963;SDS011;5534;48.784;9.190;2023-02-15T09:36:21;24.77;;;12.97;;
10963;SDS011;5534;48.784;9.190;2023-02-15T09:38:54;23.17;;;13.30;;
10963;SDS011;5534;48.784;9.190;2023-02-15T09:56:00;22.50;;;12.67;;
10963;SDS011;5534;48.784;9.190;2023-02-15T09:58:53;25.33;;;13.53;;
10963;SDS011;5534;48.784;9.190;2023-02-15T10:07:52;19.37;;;12.53;;
10963;SDS011;5534;48.784;9.190;2023-02-15T10:13:18;23.80;;;13.27;;
10963;SDS011;5534;48.784;9.190;2023-02-15T10:21:29;20.27;;;12.83;;
10963;SDS011;5534;48.784;9.190;2023-02-15T10:24:10;21.80;;;13.40;;
10963;SDS011;5534;48.784;9.190;2023-02-15T10:26:44;21.20;;;12.73;;
10963;SDS011;5534;48.784;9.190;2023-02-15T10:34:39;22.80;;;13.00;;
10963;SDS011;5534;48.784;9.190;2023-02-15T10:45:10;20.50;;;13.03;;
10963;SDS011;5534;48.784;9.190;2023-02-15T10:50:26;19.60;;;11.97;;
10963;SDS011;5534;48.784;9.190;2023-02-15T10:59:11;22.83;;;13.60;;
10963;SDS011;5534;48.784;9.190;2023-02-15T11:02:23;20.00;;;13.00;;
10963;SDS011;5534;48.784;9.190;2023-02-15T11:07:38;23.03;;;12.40;;
10963;SDS011;5534;48.784;9.190;2023-02-15T11:13:02;20.67;;;13.07;;
10963;SDS011;5534;48.784;9.190;2023-02-15T11:15:35;21.63;;;12.27;;
10963;SDS011;5534;48.784;9.190;2023-02-15T11:18:23;22.37;;;13.10;;
10963;SDS011;5534;48.784;9.190;2023-02-15T11:23:28;22.30;;;13.27;;
10963;SDS011;5534;48.784;9.190;2023-02-15T11:26:03;21.80;;;13.47;;
10963;SDS011;5534;48.784;9.190;2023-02-15T11:28:39;23.73;;;12.83;;
10963;SDS011;5534;48.784;9.190;2023-02-15T11:31:13;23.53;;;12.50;;
10963;SDS011;5534;48.784;9.190;2023-02-15T11:33:44;19.97;;;12.60;;
10963;SDS011;5534;48.784;9.190;2023-02-15T11:36:33;21.97;;;12.93;;
10963;SDS011;5534;48.784;9.190;2023-02-15T11:39:04;25.00;;;13.30;;
10963;SDS011;5534;48.784;9.190;2023-02-15T11:41:37;20.33;;;12.80;;
10963;SDS011;5534;48.784;9.190;2023-02-15T11:44:07;24.17;;;12.73;;
10963;SDS011;5534;48.784;9.190;2023-02-15T11:46:37;21.43;;;12.57;;
10963;SDS011;5534;48.784;9.190;2023-02-15T11:49:09;18.67;;;12.23;;
10963;SDS011;5534;48.784;9.190;2023-02-15T11:51:54;26.27;;;14.00;;
10963;SDS011;5534;48.784;9.190;2023-02-15T11:54:21;19.97;;;12.50;;
10963;SDS011;5534;48.784;9.190;2023-02-15T11:56:52;18.37;;;12.47;;
10963;SDS011;5534;48.784;9.190;2023-02-15T11:59:21;20.37;;;12.33;;
10963;SDS011;5534;48.784;9.190;2023-02-15T12:01:57;19.77;;;12.27;;
10963;SDS011;5534;48.784;9.190;2023-02-15T12:04:30;19.53;;;13.17;;
10963;SDS011;5534;48.784;9.190;2023-02-15T12:07:25;20.90;;;12.77;;
10963;SDS011;5534;48.784;9.190;2023-02-15T12:10:13;24.27;;;13.53;;
10963;SDS011;5534;48.784;9.190;2023-02-15T12:15:38;22.50;;;13.43;;
10963;SDS011;5534;48.784;9.190;2023-02-15T12:18:16;18.50;;;13.03;;
10963;SDS011;5534;48.784;9.190;2023-02-15T12:21:07;24.37;;;13.50;;
10963;SDS011;5534;48.784;9.190;2023-02-15T12:23:43;27.53;;;16.33;;
10963;SDS011;5534;48.784;9.190;2023-02-15T12:26:13;30.67;;;14.07;;
10963;SDS011;5534;48.784;9.190;2023-02-15T12:28:44;22.70;;;13.67;;
10963;SDS011;5534;48.784;9.190;2023-02-15T12:34:25;26.80;;;15.30;;
10963;SDS011;5534;48.784;9.190;2023-02-15T12:36:58;31.23;;;18.33;;
10963;SDS011;5534;48.784;9.190;2023-02-15T12:39:30;24.50;;;13.67;;
10963;SDS011;5534;48.784;9.190;2023-02-15T12:42:01;25.50;;;14.73;;
10963;SDS011;5534;48.784;9.190;2023-02-15T12:44:31;27.30;;;16.00;;
10963;SDS011;5534;48.784;9.190;2023-02-15T12:49:30;24.77;;;14.80;;
10963;SDS011;5534;48.784;9.190;2023-02-15T12:52:03;29.23;;;16.17;;
10963;SDS011;5534;48.784;9.190;2023-02-15T12:54:50;22.83;;;13.90;;
10963;SDS011;5534;48.784;9.190;2023-02-15T12:59:48;22.53;;;15.10;;
10963;SDS011;5534;48.784;9.190;2023-02-15T13:02:22;22.43;;;14.03;;
10963;SDS011;5534;48.784;9.190;2023-02-15T13:04:51;23.87;;;14.10;;
10963;SDS011;5534;48.784;9.190;2023-02-15T13:07:18;21.47;;;13.73;;
10963;SDS011;5534;48.784;9.190;2023-02-15T13:09:45;21.07;;;14.53;;
10963;SDS011;5534;48.784;9.190;2023-02-15T13:14:51;19.67;;;12.27;;
10963;SDS011;5534;48.784;9.190;2023-02-15T13:17:27;17.77;;;12.27;;
10963;SDS011;5534;48.784;9.190;2023-02-15T13:20:06;18.87;;;12.37;;
10963;SDS011;5534;48.784;9.190;2023-02-15T13:22:43;18.83;;;13.80;;
10963;SDS011;5534;48.784;9.190;2023-02-15T13:25:21;18.97;;;12.73;;
10963;SDS011;5534;48.784;9.190;2023-02-15T13:27:51;20.13;;;12.53;;
10963;SDS011;5534;48.784;9.190;2023-02-15T13:30:22;22.73;;;13.00;;
10963;SDS011;5534;48.784;9.190;2023-02-15T13:33:00;20.33;;;12.50;;
10963;SDS011;5534;48.784;9.190;2023-02-15T13:35:31;17.97;;;11.87;;
10963;SDS011;5534;48.784;9.190;2023-02-15T13:38:36;19.13;;;13.70;;
10963;SDS011;5534;48.784;9.190;2023-02-15T13:44:19;27.77;;;15.97;;
10963;SDS011;5534;48.784;9.190;2023-02-15T13:58:13;21.37;;;14.23;;
10963;SDS011;5534;48.784;9.190;2023-02-15T14:01:19;18.83;;;13.03;;
10963;SDS011;5534;48.784;9.190;2023-02-15T14:07:15;22.30;;;14.03;;
10963;SDS011;5534;48.784;9.190;2023-02-15T14:10:02;18.33;;;13.20;;
10963;SDS011;5534;48.784;9.190;2023-02-15T14:12:39;23.63;;;13.40;;
10963;SDS011;5534;48.784;9.190;2023-02-15T14:15:47;21.67;;;13.07;;
10963;SDS011;5534;48.784;9.190;2023-02-15T14:21:09;18.97;;;13.20;;
10963;SDS011;5534;48.784;9.190;2023-02-15T14:26:42;16.43;;;11.70;;
10963;SDS011;5534;48.784;9.190;2023-02-15T14:29:26;20.93;;;11.70;;
10963;SDS011;5534;48.784;9.190;2023-02-15T14:32:01;17.27;;;12.00;;
10963;SDS011;5534;48.784;9.190;2023-02-15T14:34:54;16.00;;;11.03;;
10963;SDS011;5534;48.784;9.190;2023-02-15T14:37:39;18.37;;;11.30;;
10963;SDS011;5534;48.784;9.190;2023-02-15T14:40:17;19.30;;;11.33;;
10963;SDS011;5534;48.784;9.190;2023-02-15T14:43:40;17.43;;;11.37;;
10963;SDS011;5534;48.784;9.190;2023-02-15T14:49:43;19.60;;;13.13;;
10963;SDS011;5534;48.784;9.190;2023-02-15T14:51:59;17.13;;;12.10;;
10963;SDS011;5534;48.784;9.190;2023-02-15T15:04:43;19.63;;;12.73;;
10963;SDS011;5534;48.784;9.190;2023-02-15T15:07:25;15.97;;;12.13;;
10963;SDS011;5534;48.784;9.190;2023-02-15T15:10:23;21.80;;;12.17;;
10963;SDS011;5534;48.784;9.190;2023-02-15T15:15:56;16.00;;;11.37;;
10963;SDS011;5534;48.784;9.190;2023-02-15T15:18:49;16.60;;;11.63;;
10963;SDS011;5534;48.784;9.190;2023-02-15T15:32:45;17.43;;;11.97;;
10963;SDS011;5534;48.784;9.190;2023-02-15T15:48:26;20.40;;;12.13;;
10963;SDS011;5534;48.784;9.190;2023-02-15T15:51:10;20.53;;;12.90;;
10963;SDS011;5534;48.784;9.190;2023-02-15T15:53:43;19.90;;;12.17;;
10963;SDS011;5534;48.784;9.190;2023-02-15T15:56:15;17.20;;;11.77;;
10963;SDS011;5534;48.784;9.190;2023-02-15T15:58:57;18.17;;;11.37;;
10963;SDS011;5534;48.784;9.190;2023-02-15T16:01:27;18.23;;;10.83;;
10963;SDS011;5534;48.784;9.190;2023-02-15T16:03:55;16.20;;;11.23;;
10963;SDS011;5534;48.784;9.190;2023-02-15T16:06:26;15.97;;;11.17;;
10963;SDS011;5534;48.784;9.190;2023-02-15T16:08:52;18.10;;;11.77;;
10963;SDS011;5534;48.784;9.190;2023-02-15T16:11:22;17.57;;;11.87;;
10963;SDS011;5534;48.784;9.190;2023-02-15T16:13:49;17.67;;;11.30;;
10963;SDS011;5534;48.784;9.190;2023-02-15T16:16:20;19.80;;;11.80;;
10963;SDS011;5534;48.784;9.190;2023-02-15T16:18:49;16.67;;;11.70;;
10963;SDS011;5534;48.784;9.190;2023-02-15T16:21:20;17.67;;;11.00;;
10963;SDS011;5534;48.784;9.190;2023-02-15T16:23:50;15.90;;;10.47;;
10963;SDS011;5534;48.784;9.190;2023-02-15T16:29:18;16.63;;;11.57;;
10963;SDS011;5534;48.784;9.190;2023-02-15T16:34:25;16.60;;;10.87;;
10963;SDS011;5534;48.784;9.190;2023-02-15T16:37:12;16.30;;;10.87;;
10963;SDS011;5534;48.784;9.190;2023-02-15T16:39:42;17.27;;;12.00;;
10963;SDS011;5534;48.784;9.190;2023-02-15T16:42:09;17.33;;;12.07;;
10963;SDS011;5534;48.784;9.190;2023-02-15T16:44:36;16.03;;;11.43;;
10963;SDS011;5534;48.784;9.190;2023-02-15T16:47:02;19.57;;;11.67;;
10963;SDS011;5534;48.784;9.190;2023-02-15T16:49:28;18.97;;;10.83;;
10963;SDS011;5534;48.784;9.190;2023-02-15T16:52:04;21.03;;;13.57;;
10963;SDS011;5534;48.784;9.190;2023-02-15T16:54:34;18.80;;;11.93;;
10963;SDS011;5534;48.784;9.190;2023-02-15T16:57:01;20.33;;;12.27;;
10963;SDS011;5534;48.784;9.190;2023-02-15T16:59:31;17.70;;;11.37;;
10963;SDS011;5534;48.784;9.190;2023-02-15T17:01:58;15.57;;;10.43;;
10963;SDS011;5534;48.784;9.190;2023-02-15T17:04:29;21.90;;;11.20;;
10963;SDS011;5534;48.784;9.190;2023-02-15T17:07:04;17.53;;;12.27;;
10963;SDS011;5534;48.784;9.190;2023-02-15T17:09:54;20.77;;;11.93;;
10963;SDS011;5534;48.784;9.190;2023-02-15T17:18:03;23.97;;;12.73;;
10963;SDS011;5534;48.784;9.190;2023-02-15T17:20:50;20.60;;;13.10;;
10963;SDS011;5534;48.784;9.190;2023-02-15T17:23:32;17.57;;;12.60;;
10963;SDS011;5534;48.784;9.190;2023-02-15T17:26:01;17.20;;;11.50;;
10963;SDS011;5534;48.784;9.190;2023-02-15T17:28:45;22.77;;;13.47;;
10963;SDS011;5534;48.784;9.190;2023-02-15T17:31:14;20.27;;;12.37;;
10963;SDS011;5534;48.784;9.190;2023-02-15T17:33:43;20.73;;;14.37;;
10963;SDS011;5534;48.784;9.190;2023-02-15T17:36:14;21.57;;;13.83;;
10963;SDS011;5534;48.784;9.190;2023-02-15T17:43:55;19.33;;;13.33;;
10963;SDS011;5534;48.784;9.190;2023-02-15T17:46:21;22.40;;;12.97;;
10963;SDS011;5534;48.784;9.190;2023-02-15T17:48:48;20.67;;;13.63;;
10963;SDS011;5534;48.784;9.190;2023-02-15T17:51:15;20.27;;;12.93;;
10963;SDS011;5534;48.784;9.190;2023-02-15T17:53:43;21.37;;;12.33;;
10963;SDS011;5534;48.784;9.190;2023-02-15T17:56:29;18.77;;;13.00;;
10963;SDS011;5534;48.784;9.190;2023-02-15T17:58:56;23.07;;;13.27;;
10963;SDS011;5534;48.784;9.190;2023-02-15T18:01:21;24.23;;;14.03;;
10963;SDS011;5534;48.784;9.190;2023-02-15T18:04:12;21.47;;;14.30;;
10963;SDS011;5534;48.784;9.190;2023-02-15T18:06:57;24.43;;;13.77;;
10963;SDS011;5534;48.784;9.190;2023-02-15T18:09:42;23.70;;;13.87;;
10963;SDS011;5534;48.784;9.190;2023-02-15T18:12:28;23.77;;;13.97;;